EHWO

Woensdrecht Air Base Airport

Bergen Op Zoom, The Netherlands
METAR EHWO 260412Z AUTO 06006KT 050V150 1900 BR OVC260 15/15 Q1018 YLO
Observed Flight Rules
May-26 @ 04:12 UTC (12 minutes ago) Instrument Flight Rules
Wind Visibility Clouds Conditions
60° at 6 knots 1,899 meters
  • Overcast at 26,000' AGL
  • Mist
Temperatures Readings
Current 15°C / 59°F
Dewpoint 15°C / 59°F
Humidity 100%
Altimeter 30.06" Hg
Pressure 1018 hPa
Elevation 17
METAR EHWO 260412Z AUTO 06006KT 050V150 1900 BR OVC260 15/15 Q1018 YLO
Observed Flight Rules
May-26 @ 04:12 UTC
(12 minutes ago)
IFR
Wind Visibility
60° at 6 knots 1,899 meters
Clouds
  • Overcast at 26,000' AGL
Conditions
  • Mist
Temperature Dewpoint
15°C / 59°F 15°C / 59°F
Humidity Altimeter Pressure
100% 30.06" Hg 1018 hPa